createdAt,value
2022-11-26T00:01:40.425Z,60.19
2022-11-26T00:04:09.343Z,60.07
2022-11-26T00:06:37.980Z,60.03
2022-11-26T00:09:05.949Z,59.93
2022-11-26T00:11:34.027Z,60.56
2022-11-26T00:14:01.658Z,59.84
2022-11-26T00:16:29.426Z,60.52
2022-11-26T00:18:57.156Z,60.29
2022-11-26T00:21:26.896Z,60.25
2022-11-26T00:23:54.486Z,60.20
2022-11-26T00:26:23.030Z,60.24
2022-11-26T00:28:51.976Z,60.47
2022-11-26T00:31:19.965Z,60.02
2022-11-26T00:33:47.633Z,60.52
2022-11-26T00:36:18.161Z,60.16
2022-11-26T00:38:47.508Z,60.29
2022-11-26T00:41:16.839Z,60.42
2022-11-26T00:43:44.977Z,60.30
2022-11-26T00:46:14.067Z,60.13
2022-11-26T00:48:41.835Z,60.67
2022-11-26T00:51:11.564Z,60.39
2022-11-26T00:53:39.132Z,60.24
2022-11-26T00:56:10.010Z,60.36
2022-11-26T00:58:37.834Z,60.38
2022-11-26T01:01:05.596Z,60.27
2022-11-26T01:03:33.269Z,60.11
2022-11-26T01:06:00.828Z,60.19
2022-11-26T01:08:30.152Z,60.29
2022-11-26T01:10:58.009Z,60.23
2022-11-26T01:13:27.001Z,60.14
2022-11-26T01:15:55.062Z,60.34
2022-11-26T01:18:22.793Z,59.95
2022-11-26T01:20:50.589Z,60.11
2022-11-26T01:23:19.077Z,60.41
2022-11-26T01:25:46.715Z,60.19
2022-11-26T01:28:15.189Z,60.21
2022-11-26T01:30:44.132Z,60.47
2022-11-26T01:33:11.761Z,59.99
2022-11-26T01:35:39.312Z,60.29
2022-11-26T01:38:06.889Z,60.35
2022-11-26T01:40:43.129Z,60.17
2022-11-26T01:43:13.708Z,60.03
2022-11-26T01:45:41.625Z,60.31
2022-11-26T01:48:26.407Z,60.39
2022-11-26T01:50:57.301Z,60.35
2022-11-26T01:53:30.428Z,60.13
2022-11-26T01:56:00.378Z,60.30
2022-11-26T01:58:30.028Z,60.24
2022-11-26T02:00:57.626Z,60.27
2022-11-26T02:03:26.567Z,60.28
2022-11-26T02:05:56.359Z,60.18
2022-11-26T02:08:24.264Z,60.19
2022-11-26T02:10:52.315Z,60.16
2022-11-26T02:13:19.891Z,60.25
2022-11-26T02:15:50.311Z,60.03
2022-11-26T02:18:17.868Z,60.25
2022-11-26T02:20:51.527Z,60.25
2022-11-26T02:23:42.516Z,60.13
2022-11-26T02:26:30.779Z,60.26
2022-11-26T02:29:15.811Z,60.16
2022-11-26T02:31:46.385Z,60.33
2022-11-26T02:34:16.362Z,60.13
2022-11-26T02:36:49.175Z,60.25
2022-11-26T02:39:18.783Z,60.13
2022-11-26T02:41:46.871Z,59.81
2022-11-26T02:44:15.004Z,60.13
2022-11-26T02:46:43.972Z,60.32
2022-11-26T02:49:11.689Z,60.19
2022-11-26T02:51:39.277Z,59.82
2022-11-26T02:54:07.125Z,60.33
2022-11-26T02:56:34.810Z,60.25
2022-11-26T02:59:02.437Z,60.12
2022-11-26T03:01:31.766Z,60.39
2022-11-26T03:04:02.704Z,60.20
2022-11-26T03:06:32.142Z,60.26
2022-11-26T03:08:59.729Z,60.09
2022-11-26T03:11:27.348Z,60.13
2022-11-26T03:13:55.063Z,60.16
2022-11-26T03:16:22.705Z,59.90
2022-11-26T03:18:50.369Z,60.18
2022-11-26T03:21:19.292Z,60.14
2022-11-26T03:23:46.855Z,60.12
2022-11-26T03:26:14.506Z,60.24
2022-11-26T03:28:42.068Z,60.30
2022-11-26T03:31:09.714Z,60.21
2022-11-26T03:33:37.292Z,60.15
2022-11-26T03:36:05.175Z,60.25
2022-11-26T03:38:34.082Z,60.15
2022-11-26T03:41:02.963Z,60.00
2022-11-26T03:43:30.522Z,60.13
2022-11-26T03:45:58.228Z,60.14
2022-11-26T03:48:25.941Z,60.36
2022-11-26T03:50:53.641Z,60.17
2022-11-26T03:53:21.331Z,60.23
2022-11-26T03:55:50.361Z,60.18
2022-11-26T03:58:17.913Z,60.12
2022-11-26T04:00:45.537Z,60.27
2022-11-26T04:03:13.120Z,60.18
2022-11-26T04:05:40.750Z,60.14
2022-11-26T04:08:08.353Z,60.14
2022-11-26T04:10:36.055Z,60.22
2022-11-26T04:13:05.019Z,60.14
2022-11-26T04:15:32.873Z,60.29
2022-11-26T04:18:00.563Z,60.19
2022-11-26T04:20:28.168Z,60.30
2022-11-26T04:22:55.831Z,60.00
2022-11-26T04:25:23.439Z,60.08
2022-11-26T04:27:50.999Z,60.06
2022-11-26T04:30:20.073Z,60.29
2022-11-26T04:32:47.629Z,60.14
2022-11-26T04:35:15.178Z,60.23
2022-11-26T04:37:43.021Z,60.22
2022-11-26T04:40:11.976Z,60.18
2022-11-26T04:42:39.567Z,60.13
2022-11-26T04:45:08.144Z,60.17
2022-11-26T04:47:42.620Z,60.22
2022-11-26T04:50:11.393Z,60.28
2022-11-26T04:52:38.918Z,60.22
2022-11-26T04:55:07.031Z,60.10
2022-11-26T04:57:34.639Z,60.11
2022-11-26T05:00:02.212Z,60.24
2022-11-26T05:02:29.851Z,59.92
2022-11-26T05:04:58.907Z,60.17
2022-11-26T05:07:26.550Z,60.28
2022-11-26T05:09:54.395Z,60.21
2022-11-26T05:12:22.076Z,60.17
2022-11-26T05:14:49.731Z,60.23
2022-11-26T05:17:17.289Z,60.20
2022-11-26T05:19:44.886Z,60.23
2022-11-26T05:22:13.899Z,60.13
2022-11-26T05:24:41.457Z,60.24
2022-11-26T05:27:09.123Z,60.08
2022-11-26T05:29:36.719Z,60.12
2022-11-26T05:32:04.533Z,60.03
2022-11-26T05:34:32.480Z,60.61
2022-11-26T05:37:00.100Z,60.30
2022-11-26T05:39:29.263Z,60.10
2022-11-26T05:41:56.834Z,60.20
2022-11-26T05:44:24.398Z,60.12
2022-11-26T05:46:51.955Z,60.18
2022-11-26T05:49:19.523Z,60.13
2022-11-26T05:51:47.112Z,60.18
2022-11-26T05:54:14.890Z,60.19
2022-11-26T05:56:44.212Z,60.13
2022-11-26T05:59:11.964Z,60.07
2022-11-26T06:01:39.522Z,60.21
2022-11-26T06:04:07.111Z,60.12
2022-11-26T06:06:34.669Z,60.19
2022-11-26T06:09:02.292Z,60.06
2022-11-26T06:11:29.832Z,60.27
2022-11-26T06:13:58.755Z,60.12
2022-11-26T06:16:26.699Z,60.22
2022-11-26T06:18:54.348Z,60.09
2022-11-26T06:21:21.877Z,60.16
2022-11-26T06:23:55.965Z,60.25
2022-11-26T06:26:26.613Z,60.19
2022-11-26T06:28:54.178Z,60.06
2022-11-26T06:31:23.162Z,60.32
2022-11-26T06:33:54.331Z,60.14
2022-11-26T06:36:21.944Z,60.07
2022-11-26T06:38:49.535Z,60.17
2022-11-26T06:41:17.222Z,60.28
2022-11-26T06:43:44.811Z,60.29
2022-11-26T06:46:12.756Z,60.10
2022-11-26T06:48:41.664Z,60.06
2022-11-26T06:51:10.124Z,60.15
2022-11-26T06:53:37.708Z,60.23
2022-11-26T06:56:06.368Z,60.33
2022-11-26T06:58:33.993Z,60.02
2022-11-26T07:01:01.671Z,60.15
2022-11-26T07:03:33.237Z,60.14
2022-11-26T07:06:02.466Z,60.25
2022-11-26T07:08:30.246Z,60.17
2022-11-26T07:10:57.916Z,60.22
2022-11-26T07:13:25.504Z,60.23
2022-11-26T07:15:53.126Z,60.32
2022-11-26T07:18:20.808Z,60.15
2022-11-26T07:20:48.414Z,60.13
2022-11-26T07:23:17.461Z,60.25
2022-11-26T07:25:45.116Z,60.37
2022-11-26T07:28:12.774Z,60.46
2022-11-26T07:30:40.471Z,60.47
2022-11-26T07:33:08.096Z,60.55
2022-11-26T07:35:35.680Z,60.58
2022-11-26T07:38:03.356Z,60.47
2022-11-26T07:40:32.293Z,60.43
2022-11-26T07:43:00.441Z,60.45
2022-11-26T07:45:28.059Z,60.30
2022-11-26T07:47:55.646Z,60.57
2022-11-26T07:50:23.241Z,60.39
2022-11-26T07:52:52.772Z,60.52
2022-11-26T07:55:20.426Z,60.51
2022-11-26T07:57:49.451Z,59.81
2022-11-26T08:00:18.322Z,58.49
2022-11-26T08:02:46.019Z,57.85
2022-11-26T08:05:13.721Z,56.64
2022-11-26T08:07:41.327Z,56.42
2022-11-26T08:10:09.757Z,55.56
2022-11-26T08:12:37.632Z,55.20
2022-11-26T08:15:07.601Z,54.78
2022-11-26T08:17:35.233Z,54.38
2022-11-26T08:20:02.827Z,54.22
2022-11-26T08:22:30.612Z,54.05
2022-11-26T08:24:58.256Z,48.59
2022-11-26T08:27:26.015Z,50.03
2022-11-26T08:29:53.625Z,51.07
2022-11-26T08:32:22.636Z,50.97
2022-11-26T08:34:50.212Z,50.95
2022-11-26T08:37:17.798Z,50.77
2022-11-26T08:39:45.453Z,50.43
2022-11-26T08:42:13.108Z,50.64
2022-11-26T08:44:40.953Z,50.17
2022-11-26T08:47:08.779Z,50.19
2022-11-26T08:49:37.773Z,50.09
2022-11-26T08:52:05.844Z,50.08
2022-11-26T08:54:33.580Z,49.98
2022-11-26T08:57:01.188Z,50.09
2022-11-26T08:59:28.799Z,49.86
2022-11-26T09:01:56.446Z,49.60
2022-11-26T09:04:24.115Z,49.77
2022-11-26T09:06:53.098Z,49.67
2022-11-26T09:09:20.744Z,49.47
2022-11-26T09:11:49.361Z,50.71
2022-11-26T09:14:17.932Z,51.33
2022-11-26T09:16:45.763Z,51.58
2022-11-26T09:19:14.087Z,51.92
2022-11-26T09:21:41.780Z,52.19
2022-11-26T09:24:10.753Z,52.36
2022-11-26T09:26:38.339Z,52.61
2022-11-26T09:29:06.155Z,52.30
2022-11-26T09:31:33.800Z,52.14
2022-11-26T09:34:02.332Z,52.00
2022-11-26T09:36:29.916Z,51.92
2022-11-26T09:38:57.687Z,51.68
2022-11-26T09:41:34.088Z,51.70
2022-11-26T09:44:20.862Z,52.52
2022-11-26T09:47:10.913Z,52.45
2022-11-26T09:49:40.579Z,52.68
2022-11-26T09:52:08.479Z,52.88
2022-11-26T09:54:36.419Z,53.14
2022-11-26T09:57:10.252Z,53.37
2022-11-26T09:59:37.988Z,53.50
2022-11-26T10:02:11.519Z,53.79
2022-11-26T10:04:40.846Z,54.12
2022-11-26T10:07:12.236Z,54.39
2022-11-26T10:09:49.979Z,54.45
2022-11-26T10:12:26.546Z,54.74
2022-11-26T10:14:57.264Z,54.73
2022-11-26T10:17:36.974Z,54.60
2022-11-26T10:20:40.516Z,54.91
2022-11-26T10:23:12.233Z,55.16
2022-11-26T10:25:42.480Z,55.42
2022-11-26T10:28:16.316Z,55.00
2022-11-26T10:30:43.916Z,55.02
2022-11-26T10:33:13.107Z,55.20
2022-11-26T10:35:40.654Z,55.14
2022-11-26T10:38:09.530Z,55.50
2022-11-26T10:40:37.349Z,55.64
2022-11-26T10:43:13.114Z,55.63
2022-11-26T10:45:43.306Z,55.77
2022-11-26T10:48:21.029Z,56.00
2022-11-26T10:51:02.822Z,55.87
2022-11-26T10:53:31.998Z,55.96
2022-11-26T10:56:00.146Z,56.01
2022-11-26T10:58:28.174Z,56.04
2022-11-26T11:00:59.005Z,55.57
2022-11-26T11:03:59.771Z,55.39
2022-11-26T11:06:28.059Z,54.98
2022-11-26T11:08:55.676Z,54.75
2022-11-26T11:11:24.177Z,54.61
2022-11-26T11:13:51.835Z,54.52
2022-11-26T11:16:26.245Z,54.60
2022-11-26T11:18:56.060Z,55.16
2022-11-26T11:21:30.385Z,55.22
2022-11-26T11:24:09.069Z,55.24
2022-11-26T11:26:41.160Z,55.50
2022-11-26T11:29:24.049Z,55.57
2022-11-26T11:31:53.156Z,55.80
2022-11-26T11:34:21.480Z,55.69
2022-11-26T11:36:59.284Z,55.95
2022-11-26T11:39:30.336Z,55.92
2022-11-26T11:41:58.854Z,55.86
2022-11-26T11:44:27.676Z,56.26
2022-11-26T11:47:06.978Z,56.22
2022-11-26T11:49:44.547Z,56.03
2022-11-26T11:52:16.909Z,55.98
2022-11-26T11:54:49.577Z,55.79
2022-11-26T11:57:20.904Z,55.99
2022-11-26T12:00:08.411Z,56.33
2022-11-26T12:03:01.013Z,56.36
2022-11-26T12:05:48.681Z,56.57
2022-11-26T12:08:25.323Z,56.47
2022-11-26T12:10:57.831Z,56.41
2022-11-26T12:13:25.385Z,56.63
2022-11-26T12:15:53.842Z,56.98
2022-11-26T12:18:24.446Z,56.69
2022-11-26T12:20:53.342Z,56.95
2022-11-26T12:23:27.360Z,56.92
2022-11-26T12:25:57.419Z,56.80
2022-11-26T12:28:26.413Z,56.82
2022-11-26T12:30:55.918Z,57.21
2022-11-26T12:33:27.803Z,57.30
2022-11-26T12:35:56.554Z,57.24
2022-11-26T12:38:26.339Z,57.55
2022-11-26T12:40:57.956Z,57.38
2022-11-26T12:43:28.093Z,57.33
2022-11-26T12:45:57.615Z,57.32
2022-11-26T12:48:32.688Z,57.40
2022-11-26T12:51:02.332Z,57.32
2022-11-26T12:53:35.092Z,57.60
2022-11-26T12:56:06.923Z,57.66
2022-11-26T12:58:40.460Z,57.80
2022-11-26T13:01:09.562Z,57.62
2022-11-26T13:03:38.549Z,57.81
2022-11-26T13:06:09.662Z,57.89
2022-11-26T13:08:42.462Z,57.76
2022-11-26T13:11:17.944Z,57.54
2022-11-26T13:13:49.200Z,57.42
2022-11-26T13:16:21.975Z,58.11
2022-11-26T13:18:51.868Z,56.38
2022-11-26T13:21:28.608Z,54.62
2022-11-26T13:24:05.117Z,53.81
2022-11-26T13:26:49.385Z,53.47
2022-11-26T13:29:39.244Z,53.59
2022-11-26T13:32:19.728Z,53.48
2022-11-26T13:35:01.699Z,53.14
2022-11-26T13:37:39.288Z,53.69
2022-11-26T13:40:37.828Z,54.56
2022-11-26T13:43:25.435Z,54.54
2022-11-26T13:46:06.469Z,54.15
2022-11-26T13:48:38.040Z,53.75
2022-11-26T13:51:08.462Z,53.53
2022-11-26T13:53:37.613Z,53.54
2022-11-26T13:56:06.535Z,52.89
2022-11-26T13:58:36.019Z,52.14
2022-11-26T14:01:28.878Z,52.00
2022-11-26T14:03:56.760Z,53.06
2022-11-26T14:06:27.892Z,53.37
2022-11-26T14:08:55.433Z,53.29
2022-11-26T14:11:56.775Z,53.07
2022-11-26T14:14:34.532Z,53.06
2022-11-26T14:17:19.561Z,53.27
2022-11-26T14:20:03.883Z,53.33
2022-11-26T14:22:33.635Z,53.64
2022-11-26T14:25:02.601Z,43.01
2022-11-26T14:27:32.299Z,47.12
2022-11-26T14:30:19.486Z,48.94
2022-11-26T14:32:49.335Z,50.41
2022-11-26T14:35:19.514Z,50.87
2022-11-26T14:37:53.527Z,51.24
2022-11-26T14:40:23.526Z,51.50
2022-11-26T14:43:06.945Z,50.18
2022-11-26T14:45:34.529Z,50.85
2022-11-26T14:48:02.184Z,51.58
2022-11-26T14:50:30.856Z,51.66
2022-11-26T14:53:00.686Z,51.74
2022-11-26T14:55:30.233Z,52.08
2022-11-26T14:57:58.630Z,52.07
2022-11-26T15:00:27.164Z,52.48
2022-11-26T15:02:55.050Z,52.60
2022-11-26T15:05:24.254Z,52.90
2022-11-26T15:08:00.056Z,52.83
2022-11-26T15:10:29.064Z,52.74
2022-11-26T15:13:02.319Z,52.27
2022-11-26T15:15:29.953Z,52.27
2022-11-26T15:17:58.856Z,51.62
2022-11-26T15:20:26.487Z,52.22
2022-11-26T15:22:54.712Z,52.07
2022-11-26T15:25:26.111Z,52.44
2022-11-26T15:27:56.034Z,52.32
2022-11-26T15:30:24.763Z,52.44
2022-11-26T15:32:57.668Z,52.50
2022-11-26T15:35:25.240Z,52.49
2022-11-26T15:37:52.804Z,52.41
2022-11-26T15:40:23.604Z,52.56
2022-11-26T15:42:52.826Z,52.45
2022-11-26T15:45:21.529Z,52.69
2022-11-26T15:47:49.666Z,53.10
2022-11-26T15:50:23.059Z,53.69
2022-11-26T15:52:50.776Z,53.87
2022-11-26T15:55:20.894Z,54.01
2022-11-26T15:57:50.936Z,54.10
2022-11-26T16:00:22.551Z,54.27
2022-11-26T16:02:51.993Z,54.37
2022-11-26T16:05:24.185Z,54.28
2022-11-26T16:07:59.499Z,54.30
2022-11-26T16:10:28.144Z,54.40
2022-11-26T16:13:19.645Z,54.43
2022-11-26T16:15:59.023Z,54.73
2022-11-26T16:18:29.578Z,54.52
2022-11-26T16:21:04.771Z,54.53
2022-11-26T16:23:32.438Z,54.85
2022-11-26T16:26:11.448Z,55.47
2022-11-26T16:28:40.418Z,56.44
2022-11-26T16:31:08.061Z,57.94
2022-11-26T16:33:35.725Z,60.67
2022-11-26T16:36:03.336Z,61.73
2022-11-26T16:38:30.902Z,63.96
2022-11-26T16:40:58.510Z,65.91
2022-11-26T16:43:26.109Z,65.97
2022-11-26T16:45:55.690Z,66.19
2022-11-26T16:48:24.670Z,65.96
2022-11-26T16:50:52.631Z,65.84
2022-11-26T16:53:20.152Z,65.73
2022-11-26T16:55:49.647Z,65.50
2022-11-26T16:58:26.951Z,65.31
2022-11-26T17:00:56.235Z,65.21
2022-11-26T17:03:23.985Z,65.15
2022-11-26T17:05:52.289Z,64.98
2022-11-26T17:08:19.839Z,64.79
2022-11-26T17:10:47.915Z,64.65
2022-11-26T17:13:15.526Z,61.23
2022-11-26T17:15:43.319Z,59.46
2022-11-26T17:18:18.851Z,58.97
2022-11-26T17:20:46.415Z,59.81
2022-11-26T17:23:13.983Z,60.08
2022-11-26T17:25:41.615Z,60.60
2022-11-26T17:28:11.649Z,60.83
2022-11-26T17:30:39.603Z,61.03
2022-11-26T17:33:07.348Z,61.08
2022-11-26T17:35:36.336Z,60.98
2022-11-26T17:38:03.922Z,60.86
2022-11-26T17:40:31.548Z,60.72
2022-11-26T17:42:59.200Z,60.70
2022-11-26T17:45:26.787Z,60.60
2022-11-26T17:47:54.336Z,60.58
2022-11-26T17:50:23.207Z,60.55
2022-11-26T17:52:52.534Z,60.39
2022-11-26T17:55:20.438Z,60.15
2022-11-26T17:57:47.988Z,60.15
2022-11-26T18:00:17.543Z,58.95
2022-11-26T18:02:46.207Z,57.97
2022-11-26T18:05:13.891Z,57.01
2022-11-26T18:07:41.470Z,56.18
2022-11-26T18:10:11.715Z,55.63
2022-11-26T18:12:39.533Z,55.35
2022-11-26T18:15:07.718Z,54.86
2022-11-26T18:17:35.271Z,54.58
2022-11-26T18:20:02.848Z,54.98
2022-11-26T18:22:30.569Z,55.77
2022-11-26T18:24:58.247Z,55.56
2022-11-26T18:27:29.107Z,55.77
2022-11-26T18:29:56.696Z,55.40
2022-11-26T18:32:24.288Z,56.09
2022-11-26T18:34:51.910Z,55.51
2022-11-26T18:37:19.578Z,55.61
2022-11-26T18:39:47.154Z,55.73
2022-11-26T18:42:36.107Z,55.62
2022-11-26T18:45:03.684Z,55.09
2022-11-26T18:47:31.312Z,55.36
2022-11-26T18:49:58.974Z,55.39
2022-11-26T18:52:26.560Z,55.47
2022-11-26T18:54:54.110Z,55.11
2022-11-26T18:57:21.664Z,55.17
2022-11-26T18:59:50.416Z,55.34
2022-11-26T19:02:19.453Z,54.98
2022-11-26T19:04:47.153Z,54.88
2022-11-26T19:07:15.555Z,55.07
2022-11-26T19:09:43.476Z,54.71
2022-11-26T19:12:11.232Z,54.71
2022-11-26T19:14:38.776Z,55.35
2022-11-26T19:17:06.420Z,55.51
2022-11-26T19:19:35.847Z,55.46
2022-11-26T19:22:03.379Z,55.03
2022-11-26T19:24:31.055Z,54.73
2022-11-26T19:26:58.664Z,55.09
2022-11-26T19:29:26.393Z,55.13
2022-11-26T19:31:53.943Z,54.26
2022-11-26T19:34:21.500Z,54.35
2022-11-26T19:36:53.151Z,54.34
2022-11-26T19:39:20.786Z,54.25
2022-11-26T19:41:48.363Z,54.26
2022-11-26T19:44:15.922Z,54.51
2022-11-26T19:46:43.492Z,53.96
2022-11-26T19:49:11.894Z,54.31
2022-11-26T19:51:39.484Z,54.05
2022-11-26T19:54:08.468Z,53.73
2022-11-26T19:56:36.378Z,54.13
2022-11-26T19:59:04.104Z,53.82
2022-11-26T20:01:32.545Z,53.76
2022-11-26T20:04:00.378Z,53.70
2022-11-26T20:06:28.339Z,53.63
2022-11-26T20:08:56.024Z,54.02
2022-11-26T20:11:25.032Z,53.94
2022-11-26T20:13:52.758Z,53.59
2022-11-26T20:16:21.865Z,53.79
2022-11-26T20:18:49.617Z,53.33
2022-11-26T20:21:19.617Z,53.49
2022-11-26T20:23:47.342Z,53.33
2022-11-26T20:26:16.988Z,51.54
2022-11-26T20:28:46.028Z,50.62
2022-11-26T20:31:16.269Z,50.37
2022-11-26T20:33:45.847Z,50.09
2022-11-26T20:36:14.771Z,49.98
2022-11-26T20:38:42.328Z,50.09
2022-11-26T20:41:10.339Z,50.74
2022-11-26T20:43:38.122Z,50.88
2022-11-26T20:46:07.656Z,50.99
2022-11-26T20:48:35.749Z,51.05
2022-11-26T20:51:03.673Z,51.22
2022-11-26T20:53:31.338Z,51.13
2022-11-26T20:55:58.895Z,51.14
2022-11-26T20:58:26.878Z,51.13
2022-11-26T21:00:54.870Z,51.17
2022-11-26T21:03:24.184Z,51.29
2022-11-26T21:05:51.943Z,51.37
2022-11-26T21:08:19.637Z,51.42
2022-11-26T21:10:47.295Z,51.71
2022-11-26T21:13:16.451Z,51.78
2022-11-26T21:15:44.289Z,51.87
2022-11-26T21:18:11.972Z,51.80
2022-11-26T21:20:41.211Z,51.96
2022-11-26T21:23:09.022Z,52.08
2022-11-26T21:25:37.912Z,52.27
2022-11-26T21:28:05.983Z,52.31
2022-11-26T21:30:33.648Z,52.63
2022-11-26T21:33:05.829Z,52.79
2022-11-26T21:35:36.648Z,52.97
2022-11-26T21:38:05.924Z,53.08
2022-11-26T21:40:33.596Z,53.49
2022-11-26T21:43:01.382Z,53.32
2022-11-26T21:45:29.172Z,53.40
2022-11-26T21:47:56.837Z,53.47
2022-11-26T21:50:24.461Z,53.34
2022-11-26T21:52:52.479Z,53.62
2022-11-26T21:55:22.104Z,53.73
2022-11-26T21:57:49.978Z,53.71
2022-11-26T22:00:18.984Z,53.80
2022-11-26T22:02:46.636Z,54.04
2022-11-26T22:05:14.288Z,54.20
2022-11-26T22:07:42.129Z,54.27
2022-11-26T22:10:11.107Z,54.43
2022-11-26T22:12:40.204Z,54.65
2022-11-26T22:15:09.051Z,54.85
2022-11-26T22:17:36.769Z,54.76
2022-11-26T22:20:04.634Z,54.83
2022-11-26T22:22:32.324Z,55.08
2022-11-26T22:25:00.017Z,55.37
2022-11-26T22:27:28.095Z,55.11
2022-11-26T22:29:57.215Z,55.37
2022-11-26T22:32:24.934Z,55.38
2022-11-26T22:34:52.647Z,55.34
2022-11-26T22:37:20.437Z,55.57
2022-11-26T22:39:52.525Z,55.53
2022-11-26T22:42:21.744Z,55.70
2022-11-26T22:44:49.337Z,55.71
2022-11-26T22:47:18.413Z,55.81
2022-11-26T22:49:46.250Z,55.83
2022-11-26T22:52:13.954Z,55.77
2022-11-26T22:54:41.641Z,55.84
2022-11-26T22:57:09.445Z,56.15
2022-11-26T22:59:37.599Z,55.87
2022-11-26T23:02:05.689Z,55.65
2022-11-26T23:04:34.753Z,56.21
2022-11-26T23:07:02.467Z,56.10
2022-11-26T23:09:30.223Z,56.19
2022-11-26T23:11:58.081Z,56.31
2022-11-26T23:14:25.717Z,56.27
2022-11-26T23:16:53.458Z,56.27
2022-11-26T23:19:21.210Z,56.41
2022-11-26T23:21:50.350Z,56.64
2022-11-26T23:24:18.028Z,56.52
2022-11-26T23:26:45.875Z,56.75
2022-11-26T23:29:13.643Z,56.67
2022-11-26T23:31:43.593Z,56.75
2022-11-26T23:34:11.623Z,57.11
2022-11-26T23:36:39.266Z,57.02
2022-11-26T23:39:10.416Z,57.03
2022-11-26T23:41:38.175Z,57.26
2022-11-26T23:44:06.240Z,57.14
2022-11-26T23:46:35.307Z,56.96
2022-11-26T23:49:03.341Z,57.12
2022-11-26T23:51:32.206Z,57.18
2022-11-26T23:53:59.901Z,57.20
2022-11-26T23:56:29.830Z,57.40
2022-11-26T23:58:59.539Z,57.20
